Terminal Aerodrome Forecast
Issued by NWS

Home | Current Version | Previous Version | Text Only | Print | Product List | Glossary On
Versions: 1 2 3 4 5 6 7 8 9 10 11 12 13 14 15 16 17
000
FTUS42 TJSJ 310500 RRA
TAFJPS
TAF
TJPS 310549Z 3106/0106 00000KT P6SM FEW030 SCT050
     FM311630 18010KT P6SM SCT030 SCT060
     FM312200 VRB05KT P6SM SCT030
      AMD NOT SKED 3111/0103=

USA.gov is the U.S. government's official web portal to all federal, state and local government web resources and services.